METAR stanice u blizini

 

LYBE - Beograd / Surčin, Srbija
Ažurirano: 18/09/2019 13:00
Partly Cloudy
Partly Cloudy
 Pravac vetra Z
Vetar: Z 17 km/h
Temperatura: 16°C
Tačka rose: 12°C
Vlažnost: 77%
Pritisak: 1023 hPa
Oblaci: Partly Cloudy
Vidljivost: 10 km
Cloud details: Partly Cloudy 396 m
2019/09/18 11:00 LYBE 181100Z 27009KT 9999 SCT013 16/12 Q1023 NOSIG
LYBT - Beograd / Batajnica, Srbija
Ažurirano: 18/09/2019 13:00
Partly Cloudy
Partly Cloudy
 Pravac vetra ZJZ
Vetar: ZJZ 13 km/h
Temperatura: 16°C
Tačka rose: 11°C
Vlažnost: 72%
Pritisak: 1022 hPa
Oblaci: Partly Cloudy
Vidljivost: 10 km
Cloud details: Partly Cloudy 610 m
2019/09/18 11:00 LYBT 181100Z 24007KT 200V280 9999 SCT020 16/11 Q1022 NOSIG
LYVR - Vršac, Srbija
Ažurirano: 18/09/2019 13:00
Mostly Cloudy
Mostly Cloudy
 Pravac vetra SZ
Vetar: SZ 22 km/h
Temperatura: 18°C
Tačka rose: 7°C
Vlažnost: 49%
Pritisak: 1021 hPa
Oblaci: Mostly Cloudy
Vidljivost: 10 km
Cloud details: Mostly Cloudy 1219 m
2019/09/18 11:00 LYVR 181100Z 31012KT 9999 BKN040 18/07 Q1021 NOSIG
 
LYKV - Lađevci, Srbija
Ažurirano: 18/09/2019 13:00
Mostly Cloudy
Mostly Cloudy
 Pravac vetra Z
Vetar: Z 11 km/h
Temperatura: 16°C
Tačka rose: 9°C
Vlažnost: 63%
Pritisak: 1023 hPa
Oblaci: Mostly Cloudy
Vidljivost: 10 km
Cloud details: Mostly Cloudy 1219 m
2019/09/18 11:00 LYKV 181100Z 26006KT 230V310 9999 BKN040 16/09 Q1023 NOSIG
LYNI - Niš, Srbija
Ažurirano: 18/09/2019 13:00
Mostly Cloudy
Mostly Cloudy
 Pravac vetra SZ
Vetar: SZ 37 km/h
Temperatura: 17°C
Tačka rose: 7°C
Vlažnost: 52%
Pritisak: 1021 hPa
Oblaci: Mostly Cloudy
Vidljivost: 10 km
Cloud details: Mostly Cloudy 1737 m
2019/09/18 11:00 LYNI 181100Z 32020KT 9999 BKN057 17/07 Q1021 NOSIG
BKPR - Priština, Srbija
Ažurirano: 18/09/2019 13:30
Partly Cloudy
Partly Cloudy
 Pravac vetra SI
Vetar: SI 35 km/h
Temperatura: 20°C
Tačka rose: 7°C
Vlažnost: 43%
Pritisak: 1020 hPa
Oblaci: Partly Cloudy
Vidljivost: 10 km
Cloud details: Few Clouds 1524 m
Partly Cloudy 5486 m
2019/09/18 11:30 BKPR 181130Z 04019KT 9999 FEW050 SCT180 20/07 Q1020 NOSIG
 
LHPP - Pecs / Pogany, Hungary
Ažurirano: 18/09/2019 12:45
Vedro
Vedro
 Pravac vetra SSZ
Vetar: SSZ 7 km/h
Temperatura: 16°C
Tačka rose: 3°C
Vlažnost: 42%
Pritisak: 1023 hPa
Pregled: Vedro
Vidljivost: greater than 10 km
2019/09/18 10:45 LHPP 181045Z 33004KT CAVOK 16/03 Q1023
LHUD - Szeged, Hungary
Ažurirano: 04/07/2019 01:45
NOT Current
Vedro
Vedro
 Pravac vetra S
Vetar: S 7 km/h
Temperatura: 18°C
Tačka rose: 13°C
Vlažnost: 73%
Pritisak: 1019 hPa
Pregled: Vedro
Vidljivost: greater than 10 km
2019/07/03 23:45 LHUD 032345Z 35004KT CAVOK 18/13 Q1019
LRTR - Timisoara, Romania
Ažurirano: 18/09/2019 13:00
Vedro
Vedro
 Pravac vetra ZSZ
Vetar: ZSZ 20 km/h
Temperatura: 19°C
Tačka rose: 3°C
Vlažnost: 35%
Pritisak: 1020 hPa
Pregled: Vedro
Vidljivost: greater than 10 km
2019/09/18 11:00 LRTR 181100Z 30011KT CAVOK 19/03 Q1020 R11/190095
 
LRCV - Craiova, Romania
Ažurirano: 18/09/2019 13:00
Vedro
Vedro
 Pravac vetra Z
Vetar: Z 28 km/h
Temperatura: 20°C
Tačka rose: 6°C
Vlažnost: 40%
Pritisak: 1016 hPa
Pregled: Vedro
Vidljivost: greater than 10 km
2019/09/18 11:00 LRCV 181100Z 26015KT CAVOK 20/06 Q1016
LBSF - Sofia, Bulgaria
Ažurirano: 18/09/2019 13:00
Few Clouds
Few Clouds
 Pravac vetra Z
Vetar: Z 28 km/h
Temperatura: 25°C
Tačka rose: 10°C
Vlažnost: 39%
Pritisak: 1017 hPa
Oblaci: Few Clouds
Vidljivost: 10 km
Cloud details: Few Clouds 1981 m
2019/09/18 11:00 LBSF 181100Z 28015KT 260V320 9999 FEW065 25/10 Q1017 TEMPO 28020G30KT
LWSK - Skoplje, Makedonija
Ažurirano: 18/09/2019 13:30
Vedro
Vedro
 Pravac vetra S
Vetar: S 37 km/h
Temperatura: 27°C
Tačka rose: 10°C
Vlažnost: 34%
Pritisak: 1016 hPa
Pregled: Vedro
Vidljivost: greater than 10 km
2019/09/18 11:30 LWSK 181130Z 01020KT CAVOK 27/10 Q1016 NOSIG
 
LYPG - Podgorica, Crna Gora
Ažurirano: 18/09/2019 13:00
Vedro
Vedro
 Pravac vetra JJI
Vetar: JJI 7 km/h
Temperatura: 28°C
Tačka rose: 11°C
Vlažnost: 35%
Pritisak: 1015 hPa
Pregled: Vedro
Vidljivost: greater than 10 km
2019/09/18 11:00 LYPG 181100Z 16004KT 100V220 CAVOK 28/11 Q1015 NOSIG
LQSA - Sarajevo, Bosna i Hercegovina
Ažurirano: 18/09/2019 13:00
Mostly Cloudy
Mostly Cloudy
 Pravac vetra Z
Vetar: Z 11 km/h
Temperatura: 14°C
Tačka rose: 11°C
Vlažnost: 82%
Pritisak: 1022 hPa
Oblaci: Mostly Cloudy
Vidljivost: 8 km
Cloud details: Partly Cloudy 610 m
Mostly Cloudy 914 m
2019/09/18 11:00 LQSA 181100Z 28006KT 8000 SCT020 BKN030 14/11 Q1022 NOSIG
LDOS - Osijek, Hrvatksa
Ažurirano: 18/09/2019 13:00
Vedro
Vedro
 Pravac vetra ZSZ
Vetar: ZSZ 6 km/h
Temperatura: 16°C
Tačka rose: 8°C
Vlažnost: 59%
Pritisak: 1023 hPa
Pregled: Vedro
Vidljivost: greater than 10 km
2019/09/18 11:00 LDOS 181100Z 29003KT 230V350 CAVOK 16/08 Q1023